sensor_id;sensor_type;location;lat;lon;timestamp;P1;durP1;ratioP1;P2;durP2;ratioP2
9422;SDS011;65863;49.506;10.400;2023-09-18T00:01:24;5.60;;;4.27;;
9422;SDS011;65863;49.506;10.400;2023-09-18T00:04:23;4.53;;;4.20;;
9422;SDS011;65863;49.506;10.400;2023-09-18T00:07:06;4.77;;;3.87;;
9422;SDS011;65863;49.506;10.400;2023-09-18T00:09:50;3.90;;;3.60;;
9422;SDS011;65863;49.506;10.400;2023-09-18T00:12:35;4.50;;;4.10;;
9422;SDS011;65863;49.506;10.400;2023-09-18T00:15:57;4.87;;;4.40;;
9422;SDS011;65863;49.506;10.400;2023-09-18T00:18:47;4.47;;;4.07;;
9422;SDS011;65863;49.506;10.400;2023-09-18T00:21:31;4.97;;;4.57;;
9422;SDS011;65863;49.506;10.400;2023-09-18T00:24:15;5.50;;;4.57;;
9422;SDS011;65863;49.506;10.400;2023-09-18T00:27:00;4.60;;;4.10;;
9422;SDS011;65863;49.506;10.400;2023-09-18T00:29:44;6.70;;;4.37;;
9422;SDS011;65863;49.506;10.400;2023-09-18T00:32:28;4.30;;;4.00;;
9422;SDS011;65863;49.506;10.400;2023-09-18T00:35:12;6.03;;;4.70;;
9422;SDS011;65863;49.506;10.400;2023-09-18T00:37:56;4.67;;;4.27;;
9422;SDS011;65863;49.506;10.400;2023-09-18T00:40:51;6.13;;;4.40;;
9422;SDS011;65863;49.506;10.400;2023-09-18T00:43:35;4.63;;;4.23;;
9422;SDS011;65863;49.506;10.400;2023-09-18T00:46:57;4.77;;;4.37;;
9422;SDS011;65863;49.506;10.400;2023-09-18T00:49:48;5.60;;;4.67;;
9422;SDS011;65863;49.506;10.400;2023-09-18T00:52:33;5.60;;;5.00;;
9422;SDS011;65863;49.506;10.400;2023-09-18T00:55:18;4.97;;;4.57;;
9422;SDS011;65863;49.506;10.400;2023-09-18T00:58:02;5.20;;;4.77;;
9422;SDS011;65863;49.506;10.400;2023-09-18T01:00:46;5.00;;;4.60;;
9422;SDS011;65863;49.506;10.400;2023-09-18T01:03:30;5.17;;;4.67;;
9422;SDS011;65863;49.506;10.400;2023-09-18T01:06:14;4.63;;;4.23;;
9422;SDS011;65863;49.506;10.400;2023-09-18T01:08:58;5.60;;;4.27;;
9422;SDS011;65863;49.506;10.400;2023-09-18T01:15:05;5.17;;;4.63;;
9422;SDS011;65863;49.506;10.400;2023-09-18T01:17:53;5.43;;;4.93;;
9422;SDS011;65863;49.506;10.400;2023-09-18T01:20:37;5.50;;;5.10;;
9422;SDS011;65863;49.506;10.400;2023-09-18T01:23:21;4.97;;;4.57;;
9422;SDS011;65863;49.506;10.400;2023-09-18T01:26:06;4.90;;;4.50;;
9422;SDS011;65863;49.506;10.400;2023-09-18T01:28:50;5.53;;;5.03;;
9422;SDS011;65863;49.506;10.400;2023-09-18T01:31:34;5.27;;;4.87;;
9422;SDS011;65863;49.506;10.400;2023-09-18T01:34:18;5.40;;;4.90;;
9422;SDS011;65863;49.506;10.400;2023-09-18T01:37:05;5.40;;;4.90;;
9422;SDS011;65863;49.506;10.400;2023-09-18T01:39:50;6.20;;;5.10;;
9422;SDS011;65863;49.506;10.400;2023-09-18T01:42:51;5.20;;;4.70;;
9422;SDS011;65863;49.506;10.400;2023-09-18T01:45:35;5.53;;;4.93;;
9422;SDS011;65863;49.506;10.400;2023-09-18T01:48:20;5.07;;;4.67;;
9422;SDS011;65863;49.506;10.400;2023-09-18T01:51:04;5.43;;;4.93;;
9422;SDS011;65863;49.506;10.400;2023-09-18T01:53:48;5.30;;;4.90;;
9422;SDS011;65863;49.506;10.400;2023-09-18T01:57:10;5.13;;;4.73;;
9422;SDS011;65863;49.506;10.400;2023-09-18T01:59:56;5.83;;;5.33;;
9422;SDS011;65863;49.506;10.400;2023-09-18T02:03:18;4.87;;;4.47;;
9422;SDS011;65863;49.506;10.400;2023-09-18T02:06:04;5.30;;;4.90;;
9422;SDS011;65863;49.506;10.400;2023-09-18T02:08:48;5.60;;;5.10;;
9422;SDS011;65863;49.506;10.400;2023-09-18T02:11:32;5.07;;;4.57;;
9422;SDS011;65863;49.506;10.400;2023-09-18T02:14:17;5.27;;;4.87;;
9422;SDS011;65863;49.506;10.400;2023-09-18T02:17:38;6.30;;;4.80;;
9422;SDS011;65863;49.506;10.400;2023-09-18T02:20:23;5.20;;;4.80;;
9422;SDS011;65863;49.506;10.400;2023-09-18T02:23:44;4.87;;;4.47;;
9422;SDS011;65863;49.506;10.400;2023-09-18T02:26:29;4.90;;;4.50;;
9422;SDS011;65863;49.506;10.400;2023-09-18T02:29:14;5.23;;;4.83;;
9422;SDS011;65863;49.506;10.400;2023-09-18T02:31:58;4.53;;;4.23;;
9422;SDS011;65863;49.506;10.400;2023-09-18T02:34:43;5.40;;;5.00;;
9422;SDS011;65863;49.506;10.400;2023-09-18T02:37:27;5.03;;;4.63;;
9422;SDS011;65863;49.506;10.400;2023-09-18T02:40:49;4.83;;;4.43;;
9422;SDS011;65863;49.506;10.400;2023-09-18T02:44:10;5.07;;;4.67;;
9422;SDS011;65863;49.506;10.400;2023-09-18T02:46:54;5.23;;;4.73;;
9422;SDS011;65863;49.506;10.400;2023-09-18T02:49:51;5.50;;;5.00;;
9422;SDS011;65863;49.506;10.400;2023-09-18T02:52:35;4.50;;;4.20;;
9422;SDS011;65863;49.506;10.400;2023-09-18T02:55:19;4.73;;;4.33;;
9422;SDS011;65863;49.506;10.400;2023-09-18T02:58:03;4.67;;;4.27;;
9422;SDS011;65863;49.506;10.400;2023-09-18T03:00:48;7.03;;;4.83;;
9422;SDS011;65863;49.506;10.400;2023-09-18T03:03:33;5.20;;;4.80;;
9422;SDS011;65863;49.506;10.400;2023-09-18T03:06:55;4.67;;;4.27;;
9422;SDS011;65863;49.506;10.400;2023-09-18T03:10:16;4.87;;;4.47;;
9422;SDS011;65863;49.506;10.400;2023-09-18T03:13:02;5.03;;;4.57;;
9422;SDS011;65863;49.506;10.400;2023-09-18T03:15:47;4.90;;;4.37;;
9422;SDS011;65863;49.506;10.400;2023-09-18T03:18:31;6.07;;;4.40;;
9422;SDS011;65863;49.506;10.400;2023-09-18T03:21:16;5.23;;;4.17;;
9422;SDS011;65863;49.506;10.400;2023-09-18T03:23:59;4.40;;;4.10;;
9422;SDS011;65863;49.506;10.400;2023-09-18T03:26:43;5.10;;;4.17;;
9422;SDS011;65863;49.506;10.400;2023-09-18T03:29:28;4.60;;;4.13;;
9422;SDS011;65863;49.506;10.400;2023-09-18T03:32:14;5.10;;;4.60;;
9422;SDS011;65863;49.506;10.400;2023-09-18T03:34:58;4.83;;;4.43;;
9422;SDS011;65863;49.506;10.400;2023-09-18T03:37:43;3.97;;;3.67;;
9422;SDS011;65863;49.506;10.400;2023-09-18T03:40:27;4.57;;;4.17;;
9422;SDS011;65863;49.506;10.400;2023-09-18T03:43:50;4.80;;;4.30;;
9422;SDS011;65863;49.506;10.400;2023-09-18T03:46:37;4.80;;;4.33;;
9422;SDS011;65863;49.506;10.400;2023-09-18T03:49:21;4.23;;;3.93;;
9422;SDS011;65863;49.506;10.400;2023-09-18T03:52:08;4.67;;;4.27;;
9422;SDS011;65863;49.506;10.400;2023-09-18T03:54:52;4.90;;;4.50;;
9422;SDS011;65863;49.506;10.400;2023-09-18T03:57:36;5.40;;;4.90;;
9422;SDS011;65863;49.506;10.400;2023-09-18T04:00:24;4.83;;;4.33;;
9422;SDS011;65863;49.506;10.400;2023-09-18T04:03:08;4.60;;;4.20;;
9422;SDS011;65863;49.506;10.400;2023-09-18T04:05:52;5.73;;;4.67;;
9422;SDS011;65863;49.506;10.400;2023-09-18T04:08:36;5.03;;;4.60;;
9422;SDS011;65863;49.506;10.400;2023-09-18T04:11:20;6.53;;;4.70;;
9422;SDS011;65863;49.506;10.400;2023-09-18T04:14:08;5.00;;;4.60;;
9422;SDS011;65863;49.506;10.400;2023-09-18T04:16:53;6.70;;;5.07;;
9422;SDS011;65863;49.506;10.400;2023-09-18T04:19:37;5.30;;;4.80;;
9422;SDS011;65863;49.506;10.400;2023-09-18T04:22:21;6.20;;;5.20;;
9422;SDS011;65863;49.506;10.400;2023-09-18T04:25:43;5.30;;;4.90;;
9422;SDS011;65863;49.506;10.400;2023-09-18T04:28:27;5.55;;;5.05;;
9422;SDS011;65863;49.506;10.400;2023-09-18T04:31:12;4.80;;;4.40;;
9422;SDS011;65863;49.506;10.400;2023-09-18T04:33:57;5.67;;;4.30;;
9422;SDS011;65863;49.506;10.400;2023-09-18T04:36:41;5.93;;;4.53;;
9422;SDS011;65863;49.506;10.400;2023-09-18T04:39:27;4.53;;;4.23;;
9422;SDS011;65863;49.506;10.400;2023-09-18T04:42:13;4.47;;;4.07;;
9422;SDS011;65863;49.506;10.400;2023-09-18T04:44:57;4.93;;;4.53;;
9422;SDS011;65863;49.506;10.400;2023-09-18T04:47:42;5.20;;;4.80;;
9422;SDS011;65863;49.506;10.400;2023-09-18T04:51:03;5.60;;;5.10;;
9422;SDS011;65863;49.506;10.400;2023-09-18T04:53:48;5.57;;;5.07;;
9422;SDS011;65863;49.506;10.400;2023-09-18T04:56:32;7.93;;;5.10;;
9422;SDS011;65863;49.506;10.400;2023-09-18T04:59:17;5.60;;;5.10;;
9422;SDS011;65863;49.506;10.400;2023-09-18T05:02:01;5.10;;;4.60;;
9422;SDS011;65863;49.506;10.400;2023-09-18T05:04:47;5.10;;;4.70;;
9422;SDS011;65863;49.506;10.400;2023-09-18T05:07:31;9.93;;;5.40;;
9422;SDS011;65863;49.506;10.400;2023-09-18T05:10:16;6.00;;;5.50;;
9422;SDS011;65863;49.506;10.400;2023-09-18T05:13:00;5.33;;;4.93;;
9422;SDS011;65863;49.506;10.400;2023-09-18T05:15:44;5.57;;;5.17;;
9422;SDS011;65863;49.506;10.400;2023-09-18T05:18:28;6.47;;;5.67;;
9422;SDS011;65863;49.506;10.400;2023-09-18T05:21:12;5.97;;;5.47;;
9422;SDS011;65863;49.506;10.400;2023-09-18T05:23:56;5.63;;;5.03;;
9422;SDS011;65863;49.506;10.400;2023-09-18T05:26:40;5.57;;;5.17;;
9422;SDS011;65863;49.506;10.400;2023-09-18T05:29:24;6.80;;;6.20;;
9422;SDS011;65863;49.506;10.400;2023-09-18T05:32:08;6.90;;;5.30;;
9422;SDS011;65863;49.506;10.400;2023-09-18T05:35:04;5.50;;;4.90;;
9422;SDS011;65863;49.506;10.400;2023-09-18T05:37:50;7.97;;;5.57;;
9422;SDS011;65863;49.506;10.400;2023-09-18T05:40:35;5.30;;;4.90;;
9422;SDS011;65863;49.506;10.400;2023-09-18T05:43:19;5.40;;;5.00;;
9422;SDS011;65863;49.506;10.400;2023-09-18T05:46:03;6.93;;;4.90;;
9422;SDS011;65863;49.506;10.400;2023-09-18T05:48:47;6.03;;;5.43;;
9422;SDS011;65863;49.506;10.400;2023-09-18T05:51:31;5.53;;;5.03;;
9422;SDS011;65863;49.506;10.400;2023-09-18T05:54:16;8.40;;;5.10;;
9422;SDS011;65863;49.506;10.400;2023-09-18T05:57:00;5.03;;;4.63;;
9422;SDS011;65863;49.506;10.400;2023-09-18T05:59:46;5.67;;;5.17;;
9422;SDS011;65863;49.506;10.400;2023-09-18T06:02:30;5.93;;;4.80;;
9422;SDS011;65863;49.506;10.400;2023-09-18T06:05:14;5.77;;;5.30;;
9422;SDS011;65863;49.506;10.400;2023-09-18T06:08:00;9.97;;;6.03;;
9422;SDS011;65863;49.506;10.400;2023-09-18T06:10:44;5.87;;;5.37;;
9422;SDS011;65863;49.506;10.400;2023-09-18T06:13:28;8.73;;;6.47;;
9422;SDS011;65863;49.506;10.400;2023-09-18T06:16:21;6.43;;;5.83;;
9422;SDS011;65863;49.506;10.400;2023-09-18T06:19:05;6.20;;;5.60;;
9422;SDS011;65863;49.506;10.400;2023-09-18T06:21:49;6.80;;;6.20;;
9422;SDS011;65863;49.506;10.400;2023-09-18T06:24:34;6.53;;;6.00;;
9422;SDS011;65863;49.506;10.400;2023-09-18T06:27:18;6.50;;;5.57;;
9422;SDS011;65863;49.506;10.400;2023-09-18T06:30:03;7.07;;;6.10;;
9422;SDS011;65863;49.506;10.400;2023-09-18T06:32:48;6.70;;;6.10;;
9422;SDS011;65863;49.506;10.400;2023-09-18T06:35:32;6.43;;;5.73;;
9422;SDS011;65863;49.506;10.400;2023-09-18T06:38:16;6.30;;;5.70;;
9422;SDS011;65863;49.506;10.400;2023-09-18T06:41:01;5.90;;;5.40;;
9422;SDS011;65863;49.506;10.400;2023-09-18T06:44:22;9.03;;;6.03;;
9422;SDS011;65863;49.506;10.400;2023-09-18T06:47:12;8.40;;;5.47;;
9422;SDS011;65863;49.506;10.400;2023-09-18T06:49:56;6.53;;;5.87;;
9422;SDS011;65863;49.506;10.400;2023-09-18T06:52:40;8.23;;;5.93;;
9422;SDS011;65863;49.506;10.400;2023-09-18T06:55:24;7.03;;;6.00;;
9422;SDS011;65863;49.506;10.400;2023-09-18T06:58:08;6.73;;;6.03;;
9422;SDS011;65863;49.506;10.400;2023-09-18T07:00:53;7.67;;;5.30;;
9422;SDS011;65863;49.506;10.400;2023-09-18T07:03:37;8.07;;;5.17;;
9422;SDS011;65863;49.506;10.400;2023-09-18T07:06:23;5.47;;;4.73;;
9422;SDS011;65863;49.506;10.400;2023-09-18T07:09:07;5.03;;;4.53;;
9422;SDS011;65863;49.506;10.400;2023-09-18T07:11:55;5.10;;;4.40;;
9422;SDS011;65863;49.506;10.400;2023-09-18T07:14:39;5.83;;;4.43;;
9422;SDS011;65863;49.506;10.400;2023-09-18T07:17:23;5.10;;;4.60;;
9422;SDS011;65863;49.506;10.400;2023-09-18T07:20:07;7.83;;;4.23;;
9422;SDS011;65863;49.506;10.400;2023-09-18T07:22:57;6.07;;;4.17;;
9422;SDS011;65863;49.506;10.400;2023-09-18T07:25:41;8.73;;;4.13;;
9422;SDS011;65863;49.506;10.400;2023-09-18T07:28:31;9.43;;;4.10;;
9422;SDS011;65863;49.506;10.400;2023-09-18T07:31:16;5.80;;;4.17;;
9422;SDS011;65863;49.506;10.400;2023-09-18T07:33:59;7.20;;;3.90;;
9422;SDS011;65863;49.506;10.400;2023-09-18T07:36:44;6.20;;;3.87;;
9422;SDS011;65863;49.506;10.400;2023-09-18T07:39:28;3.90;;;3.30;;
9422;SDS011;65863;49.506;10.400;2023-09-18T07:42:12;5.97;;;3.93;;
9422;SDS011;65863;49.506;10.400;2023-09-18T07:44:56;3.90;;;3.50;;
9422;SDS011;65863;49.506;10.400;2023-09-18T07:47:41;7.93;;;3.53;;
9422;SDS011;65863;49.506;10.400;2023-09-18T07:50:25;5.10;;;3.90;;
9422;SDS011;65863;49.506;10.400;2023-09-18T07:53:10;6.70;;;3.50;;
9422;SDS011;65863;49.506;10.400;2023-09-18T07:55:57;7.90;;;3.67;;
9422;SDS011;65863;49.506;10.400;2023-09-18T07:58:42;5.37;;;2.90;;
9422;SDS011;65863;49.506;10.400;2023-09-18T08:01:26;6.57;;;3.10;;
9422;SDS011;65863;49.506;10.400;2023-09-18T08:04:10;5.50;;;3.33;;
9422;SDS011;65863;49.506;10.400;2023-09-18T08:06:54;6.07;;;3.07;;
9422;SDS011;65863;49.506;10.400;2023-09-18T08:09:38;6.60;;;2.67;;
9422;SDS011;65863;49.506;10.400;2023-09-18T08:12:22;9.13;;;2.83;;
9422;SDS011;65863;49.506;10.400;2023-09-18T08:15:07;8.37;;;2.70;;
9422;SDS011;65863;49.506;10.400;2023-09-18T08:17:52;6.87;;;3.00;;
9422;SDS011;65863;49.506;10.400;2023-09-18T08:20:41;7.63;;;2.53;;
9422;SDS011;65863;49.506;10.400;2023-09-18T08:23:26;9.57;;;2.87;;
9422;SDS011;65863;49.506;10.400;2023-09-18T08:26:10;11.03;;;2.60;;
9422;SDS011;65863;49.506;10.400;2023-09-18T08:28:54;9.37;;;2.73;;
9422;SDS011;65863;49.506;10.400;2023-09-18T08:31:38;11.57;;;2.60;;
9422;SDS011;65863;49.506;10.400;2023-09-18T08:34:22;7.97;;;2.73;;
9422;SDS011;65863;49.506;10.400;2023-09-18T08:37:06;6.97;;;2.03;;
9422;SDS011;65863;49.506;10.400;2023-09-18T08:39:50;7.57;;;2.10;;
9422;SDS011;65863;49.506;10.400;2023-09-18T08:43:13;5.07;;;1.93;;
9422;SDS011;65863;49.506;10.400;2023-09-18T08:45:58;7.90;;;2.50;;
9422;SDS011;65863;49.506;10.400;2023-09-18T08:48:44;6.23;;;2.30;;
9422;SDS011;65863;49.506;10.400;2023-09-18T08:52:07;7.10;;;2.23;;
9422;SDS011;65863;49.506;10.400;2023-09-18T08:55:30;7.33;;;2.00;;
9422;SDS011;65863;49.506;10.400;2023-09-18T08:58:14;7.63;;;2.00;;
9422;SDS011;65863;49.506;10.400;2023-09-18T09:01:03;10.07;;;2.40;;
9422;SDS011;65863;49.506;10.400;2023-09-18T09:03:49;5.33;;;2.07;;
9422;SDS011;65863;49.506;10.400;2023-09-18T09:06:33;4.67;;;1.40;;
9422;SDS011;65863;49.506;10.400;2023-09-18T09:09:18;6.23;;;1.97;;
9422;SDS011;65863;49.506;10.400;2023-09-18T09:12:03;4.27;;;1.63;;
9422;SDS011;65863;49.506;10.400;2023-09-18T09:15:03;6.20;;;1.67;;
9422;SDS011;65863;49.506;10.400;2023-09-18T09:18:25;5.70;;;1.50;;
9422;SDS011;65863;49.506;10.400;2023-09-18T09:21:48;5.33;;;1.90;;
9422;SDS011;65863;49.506;10.400;2023-09-18T09:24:39;4.47;;;1.77;;
9422;SDS011;65863;49.506;10.400;2023-09-18T09:27:24;4.40;;;1.47;;
9422;SDS011;65863;49.506;10.400;2023-09-18T09:30:46;6.10;;;1.73;;
9422;SDS011;65863;49.506;10.400;2023-09-18T09:33:30;4.50;;;1.33;;
9422;SDS011;65863;49.506;10.400;2023-09-18T09:36:53;9.43;;;1.30;;
9422;SDS011;65863;49.506;10.400;2023-09-18T09:39:50;2.87;;;1.27;;
9422;SDS011;65863;49.506;10.400;2023-09-18T09:42:39;2.40;;;1.60;;
9422;SDS011;65863;49.506;10.400;2023-09-18T09:45:24;5.97;;;1.77;;
9422;SDS011;65863;49.506;10.400;2023-09-18T09:49:02;6.77;;;1.80;;
9422;SDS011;65863;49.506;10.400;2023-09-18T09:51:50;6.57;;;1.47;;
9422;SDS011;65863;49.506;10.400;2023-09-18T09:54:34;3.50;;;1.83;;
9422;SDS011;65863;49.506;10.400;2023-09-18T09:57:20;6.43;;;1.60;;
9422;SDS011;65863;49.506;10.400;2023-09-18T10:00:04;2.53;;;1.40;;
9422;SDS011;65863;49.506;10.400;2023-09-18T10:03:09;2.87;;;1.43;;
9422;SDS011;65863;49.506;10.400;2023-09-18T10:05:54;5.77;;;1.30;;
9422;SDS011;65863;49.506;10.400;2023-09-18T10:08:40;6.30;;;1.20;;
9422;SDS011;65863;49.506;10.400;2023-09-18T10:11:24;3.87;;;1.47;;
9422;SDS011;65863;49.506;10.400;2023-09-18T10:14:16;4.17;;;1.20;;
9422;SDS011;65863;49.506;10.400;2023-09-18T10:17:18;4.20;;;1.30;;
9422;SDS011;65863;49.506;10.400;2023-09-18T10:20:09;4.53;;;1.63;;
9422;SDS011;65863;49.506;10.400;2023-09-18T10:23:05;11.20;;;1.83;;
9422;SDS011;65863;49.506;10.400;2023-09-18T10:25:53;7.27;;;1.60;;
9422;SDS011;65863;49.506;10.400;2023-09-18T10:28:41;8.23;;;1.77;;
9422;SDS011;65863;49.506;10.400;2023-09-18T10:31:26;6.63;;;1.47;;
9422;SDS011;65863;49.506;10.400;2023-09-18T10:34:21;4.20;;;1.43;;
9422;SDS011;65863;49.506;10.400;2023-09-18T10:37:07;6.60;;;1.20;;
9422;SDS011;65863;49.506;10.400;2023-09-18T10:39:51;7.07;;;1.30;;
9422;SDS011;65863;49.506;10.400;2023-09-18T10:42:40;5.17;;;1.73;;
9422;SDS011;65863;49.506;10.400;2023-09-18T10:46:03;4.20;;;1.10;;
9422;SDS011;65863;49.506;10.400;2023-09-18T10:48:54;4.73;;;1.40;;
9422;SDS011;65863;49.506;10.400;2023-09-18T10:51:39;4.20;;;1.40;;
9422;SDS011;65863;49.506;10.400;2023-09-18T10:54:25;5.53;;;1.63;;
9422;SDS011;65863;49.506;10.400;2023-09-18T10:57:10;6.13;;;1.50;;
9422;SDS011;65863;49.506;10.400;2023-09-18T11:00:07;6.47;;;1.67;;
9422;SDS011;65863;49.506;10.400;2023-09-18T11:03:13;4.13;;;1.53;;
9422;SDS011;65863;49.506;10.400;2023-09-18T11:06:05;3.17;;;1.40;;
9422;SDS011;65863;49.506;10.400;2023-09-18T11:09:39;9.00;;;1.53;;
9422;SDS011;65863;49.506;10.400;2023-09-18T11:13:05;3.17;;;1.30;;
9422;SDS011;65863;49.506;10.400;2023-09-18T11:15:51;3.67;;;1.20;;
9422;SDS011;65863;49.506;10.400;2023-09-18T11:18:36;4.20;;;1.60;;
9422;SDS011;65863;49.506;10.400;2023-09-18T11:21:24;8.27;;;1.70;;
9422;SDS011;65863;49.506;10.400;2023-09-18T11:24:28;4.60;;;1.67;;
9422;SDS011;65863;49.506;10.400;2023-09-18T11:27:12;5.07;;;1.50;;
9422;SDS011;65863;49.506;10.400;2023-09-18T11:30:35;5.77;;;1.53;;
9422;SDS011;65863;49.506;10.400;2023-09-18T11:33:42;3.00;;;1.50;;
9422;SDS011;65863;49.506;10.400;2023-09-18T11:36:29;2.80;;;1.57;;
9422;SDS011;65863;49.506;10.400;2023-09-18T11:39:34;4.70;;;2.00;;
9422;SDS011;65863;49.506;10.400;2023-09-18T11:46:13;10.77;;;2.00;;
9422;SDS011;65863;49.506;10.400;2023-09-18T11:49:02;6.27;;;1.77;;
9422;SDS011;65863;49.506;10.400;2023-09-18T11:51:50;1.13;;;1.03;;
9422;SDS011;65863;49.506;10.400;2023-09-18T11:54:34;4.40;;;1.80;;
9422;SDS011;65863;49.506;10.400;2023-09-18T11:57:56;3.87;;;1.60;;
9422;SDS011;65863;49.506;10.400;2023-09-18T12:00:46;1.90;;;1.50;;
9422;SDS011;65863;49.506;10.400;2023-09-18T12:03:30;3.83;;;1.60;;
9422;SDS011;65863;49.506;10.400;2023-09-18T12:06:15;3.43;;;1.47;;
9422;SDS011;65863;49.506;10.400;2023-09-18T12:09:37;7.17;;;1.80;;
9422;SDS011;65863;49.506;10.400;2023-09-18T12:12:23;3.70;;;1.50;;
9422;SDS011;65863;49.506;10.400;2023-09-18T12:15:07;4.93;;;1.73;;
9422;SDS011;65863;49.506;10.400;2023-09-18T12:18:32;2.87;;;1.30;;
9422;SDS011;65863;49.506;10.400;2023-09-18T12:21:23;2.90;;;1.40;;
9422;SDS011;65863;49.506;10.400;2023-09-18T12:24:12;2.53;;;1.03;;
9422;SDS011;65863;49.506;10.400;2023-09-18T12:26:57;3.60;;;1.20;;
9422;SDS011;65863;49.506;10.400;2023-09-18T12:29:42;4.07;;;1.30;;
9422;SDS011;65863;49.506;10.400;2023-09-18T12:32:26;3.33;;;1.30;;
9422;SDS011;65863;49.506;10.400;2023-09-18T12:35:13;1.30;;;1.20;;
9422;SDS011;65863;49.506;10.400;2023-09-18T12:37:58;3.77;;;1.10;;
9422;SDS011;65863;49.506;10.400;2023-09-18T12:40:43;4.47;;;1.63;;
9422;SDS011;65863;49.506;10.400;2023-09-18T12:44:06;1.93;;;1.10;;
9422;SDS011;65863;49.506;10.400;2023-09-18T12:46:57;3.47;;;1.30;;
9422;SDS011;65863;49.506;10.400;2023-09-18T12:49:42;2.17;;;1.27;;
9422;SDS011;65863;49.506;10.400;2023-09-18T12:52:26;4.83;;;1.33;;
9422;SDS011;65863;49.506;10.400;2023-09-18T12:55:48;2.73;;;1.40;;
9422;SDS011;65863;49.506;10.400;2023-09-18T12:58:49;3.40;;;1.03;;
9422;SDS011;65863;49.506;10.400;2023-09-18T13:01:33;5.73;;;1.30;;
9422;SDS011;65863;49.506;10.400;2023-09-18T13:04:17;1.97;;;1.13;;
9422;SDS011;65863;49.506;10.400;2023-09-18T13:07:43;2.77;;;1.17;;
9422;SDS011;65863;49.506;10.400;2023-09-18T13:10:28;2.73;;;1.17;;
9422;SDS011;65863;49.506;10.400;2023-09-18T13:13:19;2.23;;;1.00;;
9422;SDS011;65863;49.506;10.400;2023-09-18T13:16:42;4.77;;;1.20;;
9422;SDS011;65863;49.506;10.400;2023-09-18T13:19:26;2.03;;;1.10;;
9422;SDS011;65863;49.506;10.400;2023-09-18T13:22:10;3.10;;;1.20;;
9422;SDS011;65863;49.506;10.400;2023-09-18T13:25:35;1.60;;;1.00;;
9422;SDS011;65863;49.506;10.400;2023-09-18T13:28:27;1.30;;;1.10;;
9422;SDS011;65863;49.506;10.400;2023-09-18T13:31:14;0.90;;;0.90;;
9422;SDS011;65863;49.506;10.400;2023-09-18T13:33:59;1.10;;;1.00;;
9422;SDS011;65863;49.506;10.400;2023-09-18T13:36:44;3.67;;;1.43;;
9422;SDS011;65863;49.506;10.400;2023-09-18T13:39:29;1.33;;;1.10;;
9422;SDS011;65863;49.506;10.400;2023-09-18T13:42:13;1.37;;;1.27;;
9422;SDS011;65863;49.506;10.400;2023-09-18T13:44:57;2.00;;;1.07;;
9422;SDS011;65863;49.506;10.400;2023-09-18T13:47:44;1.53;;;0.90;;
9422;SDS011;65863;49.506;10.400;2023-09-18T13:51:06;1.60;;;0.80;;
9422;SDS011;65863;49.506;10.400;2023-09-18T13:53:56;2.63;;;0.70;;
9422;SDS011;65863;49.506;10.400;2023-09-18T13:56:41;1.10;;;1.03;;
9422;SDS011;65863;49.506;10.400;2023-09-18T13:59:25;2.53;;;0.87;;
9422;SDS011;65863;49.506;10.400;2023-09-18T14:02:46;0.97;;;0.90;;
9422;SDS011;65863;49.506;10.400;2023-09-18T14:05:36;1.73;;;1.07;;
9422;SDS011;65863;49.506;10.400;2023-09-18T14:08:21;4.07;;;1.10;;
9422;SDS011;65863;49.506;10.400;2023-09-18T14:11:08;1.20;;;0.90;;
9422;SDS011;65863;49.506;10.400;2023-09-18T14:13:58;2.27;;;1.10;;
9422;SDS011;65863;49.506;10.400;2023-09-18T14:16:42;4.07;;;1.20;;
9422;SDS011;65863;49.506;10.400;2023-09-18T14:19:27;1.33;;;1.03;;
9422;SDS011;65863;49.506;10.400;2023-09-18T14:22:49;1.90;;;0.87;;
9422;SDS011;65863;49.506;10.400;2023-09-18T14:25:39;4.27;;;1.13;;
9422;SDS011;65863;49.506;10.400;2023-09-18T14:28:22;2.50;;;1.00;;
9422;SDS011;65863;49.506;10.400;2023-09-18T14:31:07;2.53;;;1.00;;
9422;SDS011;65863;49.506;10.400;2023-09-18T14:33:51;1.50;;;1.20;;
9422;SDS011;65863;49.506;10.400;2023-09-18T14:36:51;2.13;;;0.90;;
9422;SDS011;65863;49.506;10.400;2023-09-18T14:39:36;1.30;;;1.20;;
9422;SDS011;65863;49.506;10.400;2023-09-18T14:42:20;2.53;;;0.90;;
9422;SDS011;65863;49.506;10.400;2023-09-18T14:45:04;2.53;;;1.10;;
9422;SDS011;65863;49.506;10.400;2023-09-18T14:48:25;1.07;;;0.97;;
9422;SDS011;65863;49.506;10.400;2023-09-18T14:51:16;0.97;;;0.80;;
9422;SDS011;65863;49.506;10.400;2023-09-18T14:54:02;2.00;;;0.90;;
9422;SDS011;65863;49.506;10.400;2023-09-18T14:56:48;3.50;;;1.00;;
9422;SDS011;65863;49.506;10.400;2023-09-18T14:59:32;1.17;;;1.00;;
9422;SDS011;65863;49.506;10.400;2023-09-18T15:02:16;1.77;;;1.00;;
9422;SDS011;65863;49.506;10.400;2023-09-18T15:05:01;1.63;;;1.10;;
9422;SDS011;65863;49.506;10.400;2023-09-18T15:08:11;1.27;;;0.83;;
9422;SDS011;65863;49.506;10.400;2023-09-18T15:11:03;3.50;;;1.33;;
9422;SDS011;65863;49.506;10.400;2023-09-18T15:13:50;1.80;;;1.23;;
9422;SDS011;65863;49.506;10.400;2023-09-18T15:16:34;2.40;;;1.27;;
9422;SDS011;65863;49.506;10.400;2023-09-18T15:19:19;1.33;;;0.87;;
9422;SDS011;65863;49.506;10.400;2023-09-18T15:22:03;2.30;;;0.90;;
9422;SDS011;65863;49.506;10.400;2023-09-18T15:25:25;2.03;;;1.33;;
9422;SDS011;65863;49.506;10.400;2023-09-18T15:28:26;1.87;;;1.10;;
9422;SDS011;65863;49.506;10.400;2023-09-18T15:31:12;2.20;;;1.20;;
9422;SDS011;65863;49.506;10.400;2023-09-18T15:34:21;1.13;;;1.00;;
9422;SDS011;65863;49.506;10.400;2023-09-18T15:37:06;2.93;;;0.90;;
9422;SDS011;65863;49.506;10.400;2023-09-18T15:39:50;2.20;;;1.00;;
9422;SDS011;65863;49.506;10.400;2023-09-18T15:42:34;0.90;;;0.90;;
9422;SDS011;65863;49.506;10.400;2023-09-18T15:45:56;3.17;;;1.33;;
9422;SDS011;65863;49.506;10.400;2023-09-18T15:49:02;1.93;;;1.20;;
9422;SDS011;65863;49.506;10.400;2023-09-18T15:51:46;2.07;;;1.03;;
9422;SDS011;65863;49.506;10.400;2023-09-18T15:55:08;1.83;;;1.40;;
9422;SDS011;65863;49.506;10.400;2023-09-18T15:58:30;2.20;;;1.20;;
9422;SDS011;65863;49.506;10.400;2023-09-18T16:01:14;1.27;;;1.10;;
9422;SDS011;65863;49.506;10.400;2023-09-18T16:03:59;2.00;;;1.20;;
9422;SDS011;65863;49.506;10.400;2023-09-18T16:06:43;1.93;;;1.10;;
9422;SDS011;65863;49.506;10.400;2023-09-18T16:09:40;2.77;;;1.33;;
9422;SDS011;65863;49.506;10.400;2023-09-18T16:13:01;2.20;;;1.40;;
9422;SDS011;65863;49.506;10.400;2023-09-18T16:15:47;1.63;;;1.10;;
9422;SDS011;65863;49.506;10.400;2023-09-18T16:18:31;1.70;;;1.30;;
9422;SDS011;65863;49.506;10.400;2023-09-18T16:21:53;1.60;;;1.20;;
9422;SDS011;65863;49.506;10.400;2023-09-18T16:24:37;2.17;;;1.50;;
9422;SDS011;65863;49.506;10.400;2023-09-18T16:27:21;2.97;;;1.10;;
9422;SDS011;65863;49.506;10.400;2023-09-18T16:30:05;3.50;;;1.27;;
9422;SDS011;65863;49.506;10.400;2023-09-18T16:32:52;1.47;;;1.13;;
9422;SDS011;65863;49.506;10.400;2023-09-18T16:35:36;3.83;;;1.57;;
9422;SDS011;65863;49.506;10.400;2023-09-18T16:38:20;4.47;;;1.30;;
9422;SDS011;65863;49.506;10.400;2023-09-18T16:41:04;2.40;;;1.30;;
9422;SDS011;65863;49.506;10.400;2023-09-18T16:43:48;2.10;;;1.40;;
9422;SDS011;65863;49.506;10.400;2023-09-18T16:46:32;4.40;;;1.50;;
9422;SDS011;65863;49.506;10.400;2023-09-18T16:49:17;2.70;;;1.27;;
9422;SDS011;65863;49.506;10.400;2023-09-18T16:52:10;1.40;;;1.30;;
9422;SDS011;65863;49.506;10.400;2023-09-18T16:54:55;3.57;;;1.70;;
9422;SDS011;65863;49.506;10.400;2023-09-18T16:58:17;1.80;;;1.40;;
9422;SDS011;65863;49.506;10.400;2023-09-18T17:01:01;2.20;;;1.77;;
9422;SDS011;65863;49.506;10.400;2023-09-18T17:03:46;1.47;;;1.37;;
9422;SDS011;65863;49.506;10.400;2023-09-18T17:06:32;2.37;;;1.53;;
9422;SDS011;65863;49.506;10.400;2023-09-18T17:09:18;3.13;;;1.40;;
9422;SDS011;65863;49.506;10.400;2023-09-18T17:12:02;11.03;;;1.73;;
9422;SDS011;65863;49.506;10.400;2023-09-18T17:15:25;2.57;;;1.70;;
9422;SDS011;65863;49.506;10.400;2023-09-18T17:18:21;1.43;;;1.20;;